DAOL

Details ICAO DAOL (TAF)
Name TAFARAOUI
Region Algeria
Timezone Africa/Algiers (UTC+1.0)
Plans Departing 2
Arriving 3
Stats Elevation 367 ft / 112 m (AMSL)
Location 35.542453° -0.532272°
Runways 1
Magnetic Variation 0.171° E
Sunrise 2017-12-11 07:02:50 UTC / 2017-12-11 08:02:50 Local
Sunset 2017-12-11 16:50:51 UTC / 2017-12-11 17:50:51 Local
Advertisement - Login to hide

Runways

ID Width Length Bearing (true) Bearing (mag) Surface Threshold Offset Overrun Length
08 140 ft / 43 m 9,005 ft / 2,745 m 75.56° 75.39° Asphalt 0 ft / 0 m 0 ft / 0 m
26 140 ft / 43 m 9,005 ft / 2,745 m 255.58° 255.41° Asphalt 0 ft / 0 m 0 ft / 0 m

Map

Weather


0- 5 10 15 20 25 30 35+ Temperature / ° C

Clouds and Precipitation
Forecast for 2017-12-11 12:00 UTC. Updated 20 minutes ago

Ground ~20,000 ft ~40,000 ft Winds

METAR

DAOL 110900Z 26020G30KT 9999 SCT030 SCT100 19/05 Q1003

TAF

Not found
Warning: Do not use this data for real-world aviation or navigation. No guarantee of current accuracy is given.